Time;durP1;ratioP1;P1;durP2;ratioP2;P2;SDS_P1;SDS_P2;PMS_P1;PMS_P2;Temp;Humidity;BMP_temperature;BMP_pressure;BME280_temperature;BME280_humidity;BME280_pressure;Samples;Min_cycle;Max_cycle;Signal;HPM_P1;HPM_P2
2022/07/30 00:01:54;;;;;;;2.60;1.23;;;;;;;15.83;85.20;97943.84;18474733;32;20088;-61
2022/07/30 00:11:56;;;;;;;4.15;1.40;;;;;;;15.59;85.95;97929.19;18500689;32;20075;-61
2022/07/30 00:22:02;;;;;;;3.08;1.58;;;;;;;15.40;87.04;97933.81;18486880;32;20455;-62
2022/07/30 00:32:05;;;;;;;1.65;1.37;;;;;;;15.27;87.81;97931.84;18498581;32;20069;-61
2022/07/30 00:42:07;;;;;;;2.87;1.40;;;;;;;15.15;87.68;97940.44;18485167;32;20087;-61
2022/07/30 00:52:09;;;;;;;1.92;1.30;;;;;;;15.09;88.86;97926.09;18497846;32;20061;-61
2022/07/30 01:02:12;;;;;;;2.62;1.40;;;;;;;14.97;88.07;97923.00;18497588;32;20072;-61
2022/07/30 01:12:18;;;;;;;2.22;1.27;;;;;;;14.82;87.94;97932.16;18497347;32;20500;-61
2022/07/30 01:22:29;;;;;;;1.42;0.95;;;;;;;14.72;86.84;97933.91;18495833;32;20065;-61
2022/07/30 01:32:35;;;;;;;2.30;1.40;;;;;;;14.62;86.59;97914.97;18496442;32;20065;-61
2022/07/30 01:42:39;;;;;;;1.50;1.08;;;;;;;14.61;87.01;97931.53;18495908;32;20342;-61
2022/07/30 01:52:44;;;;;;;1.95;1.20;;;;;;;14.47;87.00;97917.84;18495663;32;20075;-61
2022/07/30 02:02:50;;;;;;;1.73;1.10;;;;;;;14.33;86.81;97920.44;18507063;32;20075;-62
2022/07/30 02:12:55;;;;;;;1.73;1.17;;;;;;;14.27;88.09;97936.00;18508184;32;20377;-61
2022/07/30 02:23:02;;;;;;;1.58;0.90;;;;;;;14.23;88.88;97930.31;18507727;32;20061;-62
2022/07/30 02:33:09;;;;;;;1.23;0.80;;;;;;;14.11;88.66;97946.22;18507197;32;20511;-62
2022/07/30 02:43:15;;;;;;;2.42;1.27;;;;;;;13.99;89.36;97956.66;18506410;32;20403;-62
2022/07/30 02:53:19;;;;;;;3.20;1.27;;;;;;;13.90;90.28;97959.19;18505826;32;20117;-62
2022/07/30 03:03:28;;;;;;;3.30;1.00;;;;;;;13.77;91.41;97952.47;18505205;32;20124;-62
2022/07/30 03:13:30;;;;;;;1.70;1.10;;;;;;;13.66;90.56;97953.66;18490598;32;20079;-62
2022/07/30 03:23:36;;;;;;;1.63;1.23;;;;;;;13.52;91.31;97957.00;18504149;32;20085;-62
2022/07/30 03:33:40;;;;;;;1.53;1.23;;;;;;;13.44;92.21;97954.09;18503378;32;20054;-62
2022/07/30 03:43:44;;;;;;;2.73;1.40;;;;;;;13.34;91.99;97971.22;18502861;32;20049;-62
2022/07/30 03:53:47;;;;;;;2.77;1.40;;;;;;;13.27;92.43;97968.81;18502031;32;20449;-62
2022/07/30 04:03:50;;;;;;;1.37;1.10;;;;;;;13.16;93.17;97978.91;18501593;32;20075;-62
2022/07/30 04:13:52;;;;;;;2.60;1.50;;;;;;;13.13;93.29;97976.78;18500883;32;20054;-62
2022/07/30 04:23:56;;;;;;;1.63;1.23;;;;;;;13.12;94.29;97982.47;18499621;32;20100;-62
2022/07/30 04:34:06;;;;;;;2.90;1.30;;;;;;;13.08;94.29;97990.34;18499618;32;20432;-62
2022/07/30 04:44:08;;;;;;;2.03;1.40;;;;;;;13.12;94.43;98006.91;18497737;32;20068;-62
2022/07/30 04:54:13;;;;;;;1.63;1.37;;;;;;;13.25;94.92;98013.63;18498098;32;20149;-62
2022/07/30 05:04:19;;;;;;;2.93;1.63;;;;;;;13.48;94.83;98021.13;18498050;32;20096;-62
2022/07/30 05:14:23;;;;;;;3.10;1.10;;;;;;;13.78;94.61;98035.63;18497235;32;20099;-62
2022/07/30 05:24:25;;;;;;;1.53;1.27;;;;;;;14.15;94.83;98036.19;18496679;32;20388;-62
2022/07/30 05:34:27;;;;;;;1.83;0.85;;;;;;;14.55;94.33;98040.47;18495949;32;20493;-62
2022/07/30 05:44:30;;;;;;;1.00;0.80;;;;;;;15.01;92.31;98046.56;18496082;32;20109;-62
2022/07/30 05:54:32;;;;;;;1.67;1.33;;;;;;;15.50;91.12;98050.87;18495172;32;20057;-63
2022/07/30 06:04:34;;;;;;;2.67;1.52;;;;;;;16.00;90.08;98057.84;18495552;32;20101;-62
2022/07/30 06:14:37;;;;;;;2.00;1.45;;;;;;;16.39;86.55;98064.84;18480578;32;20080;-62
2022/07/30 06:24:39;;;;;;;1.42;1.12;;;;;;;16.86;82.95;98057.47;18494674;32;20361;-62
2022/07/30 06:34:42;;;;;;;1.70;1.27;;;;;;;17.42;80.23;98054.78;18480134;32;20089;-62
2022/07/30 06:44:44;;;;;;;1.33;0.73;;;;;;;18.04;78.00;98072.59;18498381;32;20102;-62
2022/07/30 06:54:47;;;;;;;1.23;1.00;;;;;;;18.81;76.22;98078.91;18505311;32;20057;-62
2022/07/30 07:04:49;;;;;;;1.50;0.80;;;;;;;19.41;72.61;98074.03;18505009;32;20497;-62
2022/07/30 07:14:52;;;;;;;2.10;1.15;;;;;;;19.92;69.05;98080.75;18490430;32;20053;-62
2022/07/30 07:24:54;;;;;;;2.87;1.17;;;;;;;20.45;66.57;98094.50;18504317;32;20069;-62
2022/07/30 07:34:56;;;;;;;1.23;0.90;;;;;;;20.92;63.36;98102.81;18503397;32;20483;-62
2022/07/30 07:45:02;;;;;;;2.85;1.10;;;;;;;21.43;60.47;98105.72;18502716;32;20140;-62
2022/07/30 07:55:06;;;;;;;1.62;1.40;;;;;;;22.10;60.09;98102.41;18500500;32;20072;-62
2022/07/30 08:05:11;;;;;;;1.42;1.20;;;;;;;22.58;56.58;98103.81;18501441;32;20075;-62
2022/07/30 08:15:14;;;;;;;1.70;1.25;;;;;;;23.11;55.72;98104.06;18500684;32;20078;-63
2022/07/30 08:25:22;;;;;;;1.92;1.33;;;;;;;23.51;53.13;98103.41;18500403;32;20061;-63
2022/07/30 08:35:25;;;;;;;1.87;1.35;;;;;;;24.00;51.92;98110.87;18499521;32;20117;-62
2022/07/30 08:45:29;;;;;;;2.47;1.60;;;;;;;24.43;51.96;98110.53;18485049;32;20064;-62
2022/07/30 08:55:36;;;;;;;2.95;1.50;;;;;;;24.72;50.23;98111.34;18484562;32;20064;-62
2022/07/30 09:05:39;;;;;;;3.05;1.92;;;;;;;25.02;51.21;98109.00;18497549;32;20441;-62
2022/07/30 09:15:42;;;;;;;1.20;1.10;;;;;;;25.49;49.83;98115.72;18483072;32;20049;-62
2022/07/30 09:25:46;;;;;;;2.42;1.50;;;;;;;25.58;44.15;98102.50;18495837;32;20084;-62
2022/07/30 09:35:55;;;;;;;2.70;1.42;;;;;;;25.78;43.86;98119.19;18482274;32;20057;-62
2022/07/30 09:45:59;;;;;;;2.55;1.50;;;;;;;26.14;44.39;98117.25;18496069;32;20057;-62
2022/07/30 09:56:26;;;;;;;1.87;1.50;;;;;;;26.54;42.73;98103.03;18495081;32;20095;-62
2022/07/30 10:06:32;;;;;;;1.77;1.42;;;;;;;26.88;43.93;98094.16;18490721;32;20069;-62
2022/07/30 10:16:35;;;;;;;3.90;1.45;;;;;;;26.49;42.37;98102.50;18481751;32;20100;-62
2022/07/30 10:26:40;;;;;;;1.95;1.20;;;;;;;27.21;43.46;98106.62;18493842;32;20076;-62
2022/07/30 10:36:49;;;;;;;3.22;1.25;;;;;;;27.59;38.66;98101.31;18506959;32;20061;-62
2022/07/30 10:47:04;;;;;;;4.60;1.37;;;;;;;28.30;39.20;98097.97;18506760;32;20060;-62
2022/07/30 10:57:15;;;;;;;2.28;1.45;;;;;;;28.02;40.96;98094.44;18505617;32;20063;-62
2022/07/30 11:07:34;;;;;;;1.17;1.08;;;;;;;28.66;40.78;98096.44;18505421;32;20402;-62
2022/07/30 11:17:58;;;;;;;1.87;1.20;;;;;;;28.61;41.18;98088.41;18504602;32;20096;-62
2022/07/30 11:28:00;;;;;;;2.08;1.40;;;;;;;28.30;39.84;98093.22;18489625;32;20395;-62
2022/07/30 11:38:14;;;;;;;1.67;1.25;;;;;;;28.66;37.93;98082.53;18489388;32;20463;-62
2022/07/30 11:48:20;;;;;;;1.75;1.45;;;;;;;27.88;39.89;98083.91;18502737;32;20061;-62
2022/07/30 11:58:25;;;;;;;3.15;1.45;;;;;;;27.61;43.27;98085.88;18501765;32;20049;-62
2022/07/30 12:08:28;;;;;;;2.22;1.75;;;;;;;27.51;45.15;98080.97;18487743;32;20060;-62
2022/07/30 12:18:38;;;;;;;2.60;1.25;;;;;;;27.61;40.62;98079.53;18486576;32;20064;-62
2022/07/30 12:28:41;;;;;;;2.87;1.80;;;;;;;29.18;37.79;98073.50;18486198;32;20060;-61
2022/07/30 12:38:51;;;;;;;1.48;1.35;;;;;;;30.23;36.00;98072.19;18484795;32;20382;-61
2022/07/30 12:49:01;;;;;;;2.40;1.70;;;;;;;30.96;33.75;98065.66;18498755;32;20060;-62
2022/07/30 12:59:25;;;;;;;2.05;1.45;;;;;;;29.85;38.85;98074.44;18498454;32;20052;-62
2022/07/30 13:09:28;;;;;;;2.05;1.45;;;;;;;30.17;37.63;98057.06;18483731;32;20334;-62
2022/07/30 13:19:32;;;;;;;2.45;1.62;;;;;;;29.18;40.33;98056.78;18496926;32;20064;-62
2022/07/30 13:29:36;;;;;;;2.55;1.62;;;;;;;28.96;42.98;98042.69;18496484;32;20504;-62
2022/07/30 13:39:44;;;;;;;1.60;1.50;;;;;;;29.97;39.12;98048.19;18496590;32;20075;-62
2022/07/30 13:49:49;;;;;;;2.62;1.67;;;;;;;29.68;39.28;98048.00;18496030;32;20488;-62
2022/07/30 13:59:52;;;;;;;2.70;1.75;;;;;;;28.87;44.01;98036.63;18481645;32;20116;-62
2022/07/30 14:09:55;;;;;;;2.50;1.35;;;;;;;28.29;47.11;98029.66;18495727;32;20497;-62
2022/07/30 14:19:58;;;;;;;3.40;1.73;;;;;;;27.85;49.43;98026.28;18480795;32;20049;-62
2022/07/30 14:30:05;;;;;;;1.98;1.67;;;;;;;27.89;50.86;98020.78;18494560;32;20502;-62
2022/07/30 14:40:16;;;;;;;2.05;1.48;;;;;;;29.39;47.62;98015.19;18494467;32;20113;-62
2022/07/30 14:50:19;;;;;;;3.28;1.80;;;;;;;30.33;45.04;98007.31;18494269;32;20073;-62
2022/07/30 15:00:21;;;;;;;5.55;1.70;;;;;;;31.52;44.79;98015.78;18492832;32;20122;-62
2022/07/30 15:10:25;;;;;;;1.62;1.30;;;;;;;30.36;42.16;98011.31;18503214;32;20065;-62
2022/07/30 15:20:29;;;;;;;1.87;1.40;;;;;;;29.58;45.71;97993.81;18504156;32;20045;-62
2022/07/30 15:30:31;;;;;;;2.10;1.60;;;;;;;29.48;39.38;97992.56;18503914;32;20060;-62
2022/07/30 15:40:34;;;;;;;4.40;1.62;;;;;;;28.90;41.58;97981.00;18503633;32;20057;-62
2022/07/30 15:50:41;;;;;;;2.25;1.52;;;;;;;28.68;37.68;97974.47;18502829;32;20483;-62
2022/07/30 16:00:44;;;;;;;4.22;1.87;;;;;;;28.21;47.16;97973.16;18487916;32;20049;-62
2022/07/30 16:10:47;;;;;;;2.65;1.62;;;;;;;27.20;51.81;97966.22;18501364;32;20130;-62
2022/07/30 16:20:49;;;;;;;3.08;1.58;;;;;;;26.59;53.65;97966.03;18487063;32;20053;-62
2022/07/30 16:30:52;;;;;;;2.10;1.60;;;;;;;26.03;57.93;97962.62;18500061;32;20072;-62
2022/07/30 16:40:55;;;;;;;1.95;1.65;;;;;;;25.87;60.06;97953.56;18485945;32;20075;-62
2022/07/30 16:50:58;;;;;;;2.28;1.80;;;;;;;25.61;62.05;97951.44;18499010;32;20052;-62
2022/07/30 17:01:01;;;;;;;1.50;1.40;;;;;;;25.22;65.38;97954.16;18484133;32;20057;-62
2022/07/30 17:11:04;;;;;;;1.40;1.30;;;;;;;24.72;63.77;97943.47;18497580;32;20060;-61
2022/07/30 17:21:11;;;;;;;2.03;1.50;;;;;;;24.39;66.06;97944.59;18497388;32;20072;-61
2022/07/30 17:31:14;;;;;;;2.10;1.90;;;;;;;24.39;66.49;97947.34;18481990;32;20053;-62
2022/07/30 17:41:17;;;;;;;2.10;1.75;;;;;;;24.76;65.84;97952.66;18482498;32;20504;-61
2022/07/30 17:51:20;;;;;;;3.78;1.58;;;;;;;25.00;67.34;97951.66;18481418;32;20073;-61
2022/07/30 18:01:23;;;;;;;2.08;1.62;;;;;;;25.00;65.65;97965.50;18480942;32;20338;-62
2022/07/30 18:11:27;;;;;;;1.73;1.40;;;;;;;24.81;68.19;97966.22;18495137;32;20117;-61
2022/07/30 18:21:30;;;;;;;2.20;1.40;;;;;;;24.55;68.14;97969.50;18494857;32;20116;-61
2022/07/30 18:31:34;;;;;;;1.80;1.35;;;;;;;24.02;69.19;97964.94;18480830;32;20061;-61
2022/07/30 18:41:36;;;;;;;2.40;1.65;;;;;;;23.25;70.85;97963.06;18500098;32;20364;-61
2022/07/30 18:51:39;;;;;;;1.63;1.40;;;;;;;22.59;72.15;97964.06;18506111;32;20071;-61
2022/07/30 19:01:42;;;;;;;1.70;1.50;;;;;;;22.02;73.14;97968.38;18504400;32;20084;-61
2022/07/30 19:11:45;;;;;;;2.20;1.70;;;;;;;21.50;73.81;97967.63;18505189;32;20057;-62
2022/07/30 19:21:48;;;;;;;2.65;1.70;;;;;;;21.03;73.80;97976.03;18490641;32;20114;-62
2022/07/30 19:31:51;;;;;;;;;;;;;;;20.62;73.64;97987.31;18502899;32;20073;-62
2022/07/30 19:41:53;;;;;;;3.00;2.17;;;;;;;20.31;74.53;98002.09;18504089;32;19944;-61
2022/07/30 19:51:56;;;;;;;1.80;1.50;;;;;;;19.93;74.97;98011.03;18487819;32;20481;-62
2022/07/30 20:02:20;;;;;;;4.10;1.60;;;;;;;19.65;77.12;98015.97;18501337;32;20080;-61
2022/07/30 20:12:23;;;;;;;;;;;;;;;19.33;76.83;98028.19;18500767;32;20049;-62
2022/07/30 20:22:27;;;;;;;3.00;2.17;;;;;;;19.05;77.58;98029.25;18501315;32;20394;-62
2022/07/30 20:32:30;;;;;;;2.80;2.07;;;;;;;18.83;78.27;98037.50;18486520;32;20064;-62
2022/07/30 20:42:33;;;;;;;4.60;2.20;;;;;;;18.61;79.04;98026.28;18499516;32;20072;-62
2022/07/30 20:52:39;;;;;;;2.40;1.95;;;;;;;18.41;80.04;98035.03;18498832;32;20105;-62
2022/07/30 21:02:43;;;;;;;3.92;2.10;;;;;;;18.20;80.12;98043.75;18497879;32;20057;-62
2022/07/30 21:12:47;;;;;;;2.00;1.52;;;;;;;18.06;80.43;98043.81;18483936;32;20153;-62
2022/07/30 21:22:55;;;;;;;5.47;2.20;;;;;;;17.93;80.58;98045.47;18483826;32;20091;-62
2022/07/30 21:32:57;;;;;;;2.73;1.80;;;;;;;17.85;81.58;98054.38;18482840;32;20134;-62
2022/07/30 21:43:02;;;;;;;2.78;2.00;;;;;;;17.67;81.50;98052.63;18496298;32;20153;-62
2022/07/30 21:53:09;;;;;;;1.85;1.50;;;;;;;17.49;83.46;98057.91;18496011;32;20052;-62
2022/07/30 22:03:12;;;;;;;2.00;1.77;;;;;;;17.30;83.11;98055.28;18495358;32;20441;-61
2022/07/30 22:13:36;;;;;;;1.93;1.60;;;;;;;17.19;82.99;98057.41;18487074;32;20102;-61
2022/07/30 22:23:56;;;;;;;2.47;1.40;;;;;;;17.25;84.52;98042.53;18496772;32;20053;-61
2022/07/30 22:33:59;;;;;;;3.53;1.83;;;;;;;17.28;85.54;98066.53;18507520;32;20053;-62
2022/07/30 22:44:02;;;;;;;2.00;1.50;;;;;;;17.22;86.62;98061.47;18492626;32;20112;-62
2022/07/30 22:54:05;;;;;;;2.00;1.60;;;;;;;17.04;86.78;98063.19;18506459;32;20108;-62
2022/07/30 23:04:14;;;;;;;3.25;1.55;;;;;;;16.86;87.15;98073.84;18375709;32;20066;-62
2022/07/30 23:14:16;;;;;;;4.20;2.12;;;;;;;16.73;86.90;98077.38;18375275;32;20065;-62
2022/07/30 23:24:19;;;;;;;1.60;1.45;;;;;;;16.60;87.04;98084.44;18375089;32;20069;-62
2022/07/30 23:34:22;;;;;;;3.40;1.90;;;;;;;16.42;87.79;98084.16;18374894;32;20074;-62
2022/07/30 23:44:24;;;;;;;2.17;1.80;;;;;;;16.35;88.81;98077.47;18374671;32;20058;-62
2022/07/30 23:54:27;;;;;;;2.42;1.62;;;;;;;16.18;88.33;98076.09;18363351;32;20438;-62
